createdAt,value
2024-01-06T00:00:58.640Z,95941.75
2024-01-06T00:03:28.719Z,95942.44
2024-01-06T00:06:02.192Z,95944.09
2024-01-06T00:08:30.585Z,95943.50
2024-01-06T00:10:59.102Z,95938.78
2024-01-06T00:13:28.712Z,95938.00
2024-01-06T00:15:56.882Z,95940.91
2024-01-06T00:18:25.299Z,95934.75
2024-01-06T00:20:53.638Z,95943.91
2024-01-06T00:23:23.667Z,95945.22
2024-01-06T00:25:51.680Z,95943.94
2024-01-06T00:28:20.515Z,95936.50
2024-01-06T00:30:50.453Z,95945.94
2024-01-06T00:33:18.862Z,95945.25
2024-01-06T00:35:47.048Z,95942.34
2024-01-06T00:38:15.278Z,95948.19
2024-01-06T00:40:43.594Z,95947.56
2024-01-06T00:43:11.744Z,95940.75
2024-01-06T00:45:39.982Z,95945.63
2024-01-06T00:48:10.876Z,95946.28
2024-01-06T00:50:39.163Z,95943.34
2024-01-06T00:53:07.385Z,95953.56
2024-01-06T00:55:35.581Z,95952.75
2024-01-06T00:58:03.638Z,95962.50
2024-01-06T01:00:32.068Z,95962.50
2024-01-06T01:03:00.429Z,95964.13
2024-01-06T01:05:29.930Z,95956.66
2024-01-06T01:07:57.967Z,95960.22
2024-01-06T01:10:26.057Z,95960.06
2024-01-06T01:12:54.168Z,95953.72
2024-01-06T01:15:28.461Z,95967.66
2024-01-06T01:17:59.275Z,95972.69
2024-01-06T01:24:29.064Z,95969.44
2024-01-06T01:27:22.714Z,95968.97
2024-01-06T01:29:53.887Z,95970.91
2024-01-06T01:32:22.456Z,95967.34
2024-01-06T01:34:53.772Z,95968.31
2024-01-06T01:37:22.945Z,95967.53
2024-01-06T01:39:52.450Z,95962.78
2024-01-06T01:42:20.666Z,95953.88
2024-01-06T01:44:49.036Z,95946.56
2024-01-06T01:47:19.926Z,95940.72
2024-01-06T01:49:48.971Z,95942.66
2024-01-06T01:52:18.196Z,95941.03
2024-01-06T01:54:47.639Z,95936.16
2024-01-06T01:57:19.208Z,95944.94
2024-01-06T01:59:48.862Z,95950.16
2024-01-06T02:02:19.484Z,95949.19
2024-01-06T02:04:47.782Z,95952.09
2024-01-06T02:07:16.024Z,95948.53
2024-01-06T02:09:44.733Z,95952.59
2024-01-06T02:12:13.757Z,95954.53
2024-01-06T02:14:44.477Z,95956.66
2024-01-06T02:17:12.587Z,95953.09
2024-01-06T02:19:41.228Z,95949.19
2024-01-06T02:22:10.861Z,95950.66
2024-01-06T02:24:39.139Z,95945.13
2024-01-06T02:27:09.398Z,95950.00
2024-01-06T02:29:38.301Z,95955.19
2024-01-06T02:32:07.398Z,95947.56
2024-01-06T02:34:36.117Z,95949.84
2024-01-06T02:37:05.206Z,95949.19
2024-01-06T02:39:34.827Z,95944.81
2024-01-06T02:42:04.403Z,95951.94
2024-01-06T02:44:32.442Z,95947.91
2024-01-06T02:47:00.749Z,95946.91
2024-01-06T02:49:30.179Z,95948.53
2024-01-06T02:51:59.253Z,95948.53
2024-01-06T02:54:27.970Z,95949.03
2024-01-06T02:56:57.693Z,95958.44
2024-01-06T02:59:25.911Z,95958.13
2024-01-06T03:01:54.350Z,95956.66
2024-01-06T03:04:22.733Z,95955.66
2024-01-06T03:06:54.970Z,95945.91
2024-01-06T03:09:23.939Z,95947.53
2024-01-06T03:11:52.596Z,95956.63
2024-01-06T03:14:22.338Z,95960.66
2024-01-06T03:16:50.918Z,95955.66
2024-01-06T03:19:20.152Z,95959.38
2024-01-06T03:21:48.888Z,95958.59
2024-01-06T03:24:17.160Z,95967.97
2024-01-06T03:26:45.200Z,95964.22
2024-01-06T03:29:13.828Z,95964.41
2024-01-06T03:31:46.703Z,95962.16
2024-01-06T03:34:15.406Z,95967.97
2024-01-06T03:36:44.087Z,95964.41
2024-01-06T03:39:14.611Z,95959.25
2024-01-06T03:41:42.665Z,95959.25
2024-01-06T03:44:12.280Z,95961.34
2024-01-06T03:46:40.264Z,95961.50
2024-01-06T03:49:10.314Z,95962.31
2024-01-06T03:51:38.554Z,95964.28
2024-01-06T03:54:07.090Z,95970.44
2024-01-06T03:56:35.298Z,95967.19
2024-01-06T03:59:03.480Z,95978.06
2024-01-06T04:01:36.286Z,95976.09
2024-01-06T04:04:04.681Z,95985.34
2024-01-06T04:06:35.927Z,95978.06
2024-01-06T04:09:04.877Z,95980.00
2024-01-06T04:11:33.427Z,95980.00
2024-01-06T04:14:01.532Z,95975.81
2024-01-06T04:16:30.026Z,95973.84
2024-01-06T04:18:58.424Z,95976.78
2024-01-06T04:21:26.667Z,95978.22
2024-01-06T04:23:57.275Z,95978.41
2024-01-06T04:26:25.517Z,95991.03
2024-01-06T04:28:54.642Z,95986.16
2024-01-06T04:31:22.904Z,95975.47
2024-01-06T04:33:53.251Z,95983.22
2024-01-06T04:36:21.431Z,95986.75
2024-01-06T04:38:49.724Z,95989.63
2024-01-06T04:41:19.592Z,95991.28
2024-01-06T04:43:47.650Z,95988.38
2024-01-06T04:46:16.066Z,95985.59
2024-01-06T04:48:44.905Z,95986.75
2024-01-06T04:51:13.650Z,95999.25
2024-01-06T04:53:42.721Z,95989.16
2024-01-06T04:56:11.037Z,95991.94
2024-01-06T04:58:40.934Z,95994.00
2024-01-06T05:01:09.729Z,95991.91
2024-01-06T05:03:38.057Z,95990.63
2024-01-06T05:06:06.670Z,95985.28
2024-01-06T05:08:34.791Z,95976.47
2024-01-06T05:11:03.564Z,95975.63
2024-01-06T05:13:31.992Z,95981.25
2024-01-06T05:16:01.961Z,95981.38
2024-01-06T05:18:31.842Z,95985.03
2024-01-06T05:21:00.570Z,95976.72
2024-01-06T05:23:28.927Z,95987.69
2024-01-06T05:25:57.051Z,95988.78
2024-01-06T05:28:25.377Z,95998.66
2024-01-06T05:30:53.725Z,96004.44
2024-01-06T05:33:23.654Z,96004.44
2024-01-06T05:35:52.186Z,96010.31
2024-01-06T05:38:20.264Z,96019.78
2024-01-06T05:40:48.789Z,96022.09
2024-01-06T05:43:17.731Z,96014.00
2024-01-06T05:45:47.129Z,96025.38
2024-01-06T05:48:15.726Z,96026.69
2024-01-06T05:50:45.440Z,96030.63
2024-01-06T05:53:15.546Z,96029.94
2024-01-06T05:55:43.827Z,96037.13
2024-01-06T05:58:12.390Z,96036.94
2024-01-06T06:00:41.290Z,96043.72
2024-01-06T06:03:09.843Z,96045.97
2024-01-06T06:05:38.592Z,96040.56
2024-01-06T06:08:08.713Z,96052.06
2024-01-06T06:10:53.295Z,96054.53
2024-01-06T06:13:21.721Z,96058.75
2024-01-06T06:15:50.370Z,96056.56
2024-01-06T06:18:19.155Z,96050.13
2024-01-06T06:20:47.318Z,96059.19
2024-01-06T06:23:17.217Z,96058.56
2024-01-06T06:25:45.269Z,96063.78
2024-01-06T06:28:13.782Z,96070.66
2024-01-06T06:30:42.484Z,96063.22
2024-01-06T06:33:10.739Z,96071.31
2024-01-06T06:35:38.932Z,96074.28
2024-01-06T06:38:07.414Z,96079.47
2024-01-06T06:40:37.004Z,96078.34
2024-01-06T06:43:06.414Z,96075.63
2024-01-06T06:45:34.706Z,96081.13
2024-01-06T06:48:03.414Z,96085.97
2024-01-06T06:50:31.733Z,96096.66
2024-01-06T06:53:00.097Z,96102.50
2024-01-06T06:55:28.491Z,96099.66
2024-01-06T06:57:58.250Z,96107.41
2024-01-06T07:00:26.810Z,96112.41
2024-01-06T07:02:55.108Z,96103.78
2024-01-06T07:05:23.337Z,96118.69
2024-01-06T07:07:51.794Z,96119.34
2024-01-06T07:10:19.992Z,96117.94
2024-01-06T07:12:48.286Z,96117.97
2024-01-06T07:15:18.675Z,96117.31
2024-01-06T07:17:47.412Z,96116.50
2024-01-06T07:20:16.377Z,96125.28
2024-01-06T07:22:45.340Z,96128.53
2024-01-06T07:25:14.165Z,96127.72
2024-01-06T07:27:42.518Z,96129.19
2024-01-06T07:30:13.019Z,96122.72
2024-01-06T07:32:43.542Z,96115.25
2024-01-06T07:35:12.275Z,96126.31
2024-01-06T07:37:40.526Z,96117.88
2024-01-06T07:40:09.472Z,96123.88
2024-01-06T07:42:38.203Z,96123.56
2024-01-06T07:45:07.722Z,96136.69
2024-01-06T07:47:36.179Z,96143.50
2024-01-06T07:50:06.496Z,96142.56
2024-01-06T07:52:35.263Z,96148.75
2024-01-06T07:55:04.316Z,96149.06
2024-01-06T07:57:32.590Z,96147.13
2024-01-06T08:00:05.429Z,96157.84
2024-01-06T08:02:40.463Z,96155.59
2024-01-06T08:05:10.905Z,96166.63
2024-01-06T08:07:39.561Z,96167.13
2024-01-06T08:10:10.345Z,96176.06
2024-01-06T08:12:39.022Z,96168.41
2024-01-06T08:15:09.712Z,96177.19
2024-01-06T08:17:38.877Z,96180.28
2024-01-06T08:20:07.776Z,96180.94
2024-01-06T08:22:37.232Z,96177.06
2024-01-06T08:25:08.623Z,96177.03
2024-01-06T08:27:37.090Z,96188.09
2024-01-06T08:30:07.451Z,96184.34
2024-01-06T08:32:35.935Z,96190.03
2024-01-06T08:35:05.330Z,96194.91
2024-01-06T08:37:33.505Z,96194.75
2024-01-06T08:40:04.985Z,96192.00
2024-01-06T08:42:33.554Z,96198.81
2024-01-06T08:45:02.427Z,96207.94
2024-01-06T08:47:30.675Z,96208.09
2024-01-06T08:49:59.823Z,96207.91
2024-01-06T08:52:28.732Z,96205.63
2024-01-06T08:54:57.277Z,96208.56
2024-01-06T08:57:27.032Z,96210.19
2024-01-06T08:59:55.025Z,96216.84
2024-01-06T09:02:24.930Z,96223.81
2024-01-06T09:04:53.007Z,96215.88
2024-01-06T09:07:21.320Z,96220.91
2024-01-06T09:09:49.887Z,96225.44
2024-01-06T09:12:17.934Z,96227.88
2024-01-06T09:14:49.352Z,96223.50
2024-01-06T09:17:17.635Z,96228.47
2024-01-06T09:19:45.905Z,96232.53
2024-01-06T09:22:14.593Z,96234.94
2024-01-06T09:24:43.131Z,96240.34
2024-01-06T09:27:14.145Z,96237.03
2024-01-06T09:29:42.756Z,96227.31
2024-01-06T09:32:14.111Z,96230.94
2024-01-06T09:34:42.353Z,96237.94
2024-01-06T09:37:11.026Z,96241.28
2024-01-06T09:39:40.670Z,96232.75
2024-01-06T09:42:10.174Z,96238.34
2024-01-06T09:44:40.475Z,96228.41
2024-01-06T09:47:14.477Z,96231.38
2024-01-06T09:49:50.844Z,96225.94
2024-01-06T09:52:24.792Z,96226.06
2024-01-06T09:54:55.583Z,96232.53
2024-01-06T09:57:25.762Z,96230.56
2024-01-06T09:59:54.793Z,96236.31
2024-01-06T10:02:26.108Z,96232.53
2024-01-06T10:04:56.297Z,96235.28
2024-01-06T10:07:24.554Z,96233.22
2024-01-06T10:09:53.156Z,96236.94
2024-01-06T10:12:25.993Z,96228.72
2024-01-06T10:14:54.448Z,96232.09
2024-01-06T10:17:24.955Z,96226.56
2024-01-06T10:19:55.048Z,96232.75
2024-01-06T10:22:24.352Z,96234.28
2024-01-06T10:24:52.873Z,96237.56
2024-01-06T10:27:21.449Z,96243.84
2024-01-06T10:29:49.631Z,96239.72
2024-01-06T10:32:18.590Z,96245.47
2024-01-06T10:34:48.971Z,96245.38
2024-01-06T10:37:20.066Z,96241.00
2024-01-06T10:39:47.233Z,96245.63
2024-01-06T10:42:17.628Z,96247.34
2024-01-06T10:44:47.752Z,96245.03
2024-01-06T10:47:19.269Z,96245.66
2024-01-06T10:49:54.674Z,96241.81
2024-01-06T10:52:26.378Z,96244.53
2024-01-06T10:54:56.635Z,96237.34
2024-01-06T10:57:25.790Z,96235.91
2024-01-06T10:59:54.839Z,96229.19
2024-01-06T11:02:24.857Z,96231.22
2024-01-06T11:04:55.334Z,96240.06
2024-01-06T11:07:25.703Z,96238.13
2024-01-06T11:09:59.568Z,96231.19
2024-01-06T11:12:28.636Z,96238.41
2024-01-06T11:14:57.330Z,96243.00
2024-01-06T11:17:56.810Z,96245.66
2024-01-06T11:20:28.204Z,96239.19
2024-01-06T11:22:57.440Z,96236.59
2024-01-06T11:25:29.033Z,96244.41
2024-01-06T11:27:58.539Z,96236.72
2024-01-06T11:30:29.672Z,96241.19
2024-01-06T11:33:00.265Z,96246.44
2024-01-06T11:35:30.597Z,96246.94
2024-01-06T11:38:02.594Z,96248.56
2024-01-06T11:40:35.403Z,96244.03
2024-01-06T11:43:07.045Z,96241.75
2024-01-06T11:45:36.699Z,96239.50
2024-01-06T11:48:06.813Z,96239.84
2024-01-06T11:50:38.387Z,96244.44
2024-01-06T11:53:11.332Z,96246.13
2024-01-06T11:55:43.765Z,96247.94
2024-01-06T11:58:13.875Z,96247.75
2024-01-06T12:00:42.552Z,96250.34
2024-01-06T12:03:11.796Z,96247.13
2024-01-06T12:05:41.453Z,96251.19
2024-01-06T12:08:09.753Z,96244.22
2024-01-06T12:10:38.337Z,96245.25
2024-01-06T12:13:10.507Z,96248.47
2024-01-06T12:15:41.477Z,96259.53
2024-01-06T12:18:10.829Z,96252.38
2024-01-06T12:20:39.545Z,96261.84
2024-01-06T12:23:09.040Z,96266.72
2024-01-06T12:25:40.488Z,96272.56
2024-01-06T12:28:10.142Z,96272.25
2024-01-06T12:30:40.998Z,96273.22
2024-01-06T12:33:09.989Z,96274.88
2024-01-06T12:35:38.881Z,96270.47
2024-01-06T12:38:09.008Z,96274.53
2024-01-06T12:40:41.144Z,96269.03
2024-01-06T12:43:09.890Z,96269.31
2024-01-06T12:45:38.085Z,96269.31
2024-01-06T12:48:07.436Z,96274.06
2024-01-06T12:50:35.828Z,96273.56
2024-01-06T12:53:04.027Z,96276.66
2024-01-06T12:55:32.236Z,96273.56
2024-01-06T12:58:05.188Z,96276.00
2024-01-06T13:00:37.197Z,96280.22
2024-01-06T13:03:07.187Z,96288.50
2024-01-06T13:05:35.338Z,96291.59
2024-01-06T13:08:04.613Z,96290.94
2024-01-06T13:10:33.172Z,96300.81
2024-01-06T13:13:03.025Z,96308.88
2024-01-06T13:15:31.824Z,96305.81
2024-01-06T13:18:00.293Z,96308.38
2024-01-06T13:20:28.360Z,96313.25
2024-01-06T13:22:56.750Z,96304.34
2024-01-06T13:25:24.905Z,96301.53
2024-01-06T13:27:54.011Z,96315.97
2024-01-06T13:30:26.796Z,96315.16
2024-01-06T13:32:56.282Z,96315.31
2024-01-06T13:35:26.455Z,96321.06
2024-01-06T13:37:57.081Z,96329.53
2024-01-06T13:40:26.921Z,96328.84
2024-01-06T13:42:56.059Z,96326.88
2024-01-06T13:45:26.794Z,96325.94
2024-01-06T13:47:55.456Z,96328.75
2024-01-06T13:50:24.290Z,96325.00
2024-01-06T13:52:53.443Z,96328.22
2024-01-06T13:55:22.185Z,96340.34
2024-01-06T13:57:51.031Z,96341.69
2024-01-06T14:00:21.818Z,96338.63
2024-01-06T14:02:52.508Z,96337.00
2024-01-06T14:05:22.009Z,96341.47
2024-01-06T14:07:52.110Z,96346.41
2024-01-06T14:10:21.008Z,96339.44
2024-01-06T14:12:50.954Z,96339.88
2024-01-06T14:15:20.351Z,96345.72
2024-01-06T14:17:51.596Z,96358.81
2024-01-06T14:20:21.982Z,96361.50
2024-01-06T14:22:51.335Z,96363.47
2024-01-06T14:25:21.062Z,96364.75
2024-01-06T14:27:49.735Z,96361.63
2024-01-06T14:30:18.582Z,96370.53
2024-01-06T14:32:47.811Z,96370.84
2024-01-06T14:35:17.557Z,96379.19
2024-01-06T14:37:47.509Z,96379.44
2024-01-06T14:40:19.467Z,96382.06
2024-01-06T14:42:48.780Z,96382.97
2024-01-06T14:45:19.655Z,96381.63
2024-01-06T14:47:51.705Z,96390.59
2024-01-06T14:50:20.907Z,96386.75
2024-01-06T14:52:51.356Z,96390.31
2024-01-06T14:55:44.971Z,96389.28
2024-01-06T14:58:13.762Z,96389.63
2024-01-06T15:00:42.600Z,96411.69
2024-01-06T15:03:11.174Z,96401.09
2024-01-06T15:05:40.126Z,96402.78
2024-01-06T15:08:10.430Z,96417.00
2024-01-06T15:10:40.091Z,96413.44
2024-01-06T15:13:08.743Z,96421.06
2024-01-06T15:15:38.419Z,96421.06
2024-01-06T15:18:10.182Z,96426.69
2024-01-06T15:20:41.547Z,96421.50
2024-01-06T15:23:12.800Z,96423.00
2024-01-06T15:25:43.310Z,96430.81
2024-01-06T15:28:12.268Z,96432.06
2024-01-06T15:30:40.696Z,96438.88
2024-01-06T15:33:09.600Z,96440.25
2024-01-06T15:35:38.464Z,96443.09
2024-01-06T15:38:07.258Z,96449.75
2024-01-06T15:40:38.265Z,96442.13
2024-01-06T15:43:06.712Z,96447.63
2024-01-06T15:45:36.077Z,96445.41
2024-01-06T15:48:05.218Z,96446.81
2024-01-06T15:50:34.187Z,96443.66
2024-01-06T15:53:02.892Z,96445.50
2024-01-06T15:55:31.421Z,96449.28
2024-01-06T15:58:01.032Z,96452.00
2024-01-06T16:00:29.228Z,96447.13
2024-01-06T16:02:57.538Z,96456.75
2024-01-06T16:05:25.655Z,96458.25
2024-01-06T16:07:54.383Z,96465.25
2024-01-06T16:10:23.013Z,96475.34
2024-01-06T16:12:52.381Z,96474.94
2024-01-06T16:15:22.155Z,96467.03
2024-01-06T16:17:51.228Z,96478.56
2024-01-06T16:20:19.800Z,96468.19
2024-01-06T16:22:48.250Z,96464.53
2024-01-06T16:25:16.314Z,96465.91
2024-01-06T16:27:45.138Z,96470.94
2024-01-06T16:30:16.239Z,96469.31
2024-01-06T16:32:48.529Z,96478.84
2024-01-06T16:35:16.877Z,96475.03
2024-01-06T16:37:45.042Z,96475.03
2024-01-06T16:40:14.089Z,96478.72
2024-01-06T16:42:42.200Z,96482.97
2024-01-06T16:45:11.544Z,96474.78
2024-01-06T16:47:39.690Z,96479.16
2024-01-06T16:50:10.941Z,96477.50
2024-01-06T16:52:40.123Z,96477.41
2024-01-06T16:55:09.768Z,96467.44
2024-01-06T16:57:38.831Z,96476.97
2024-01-06T17:00:11.000Z,96476.16
2024-01-06T17:02:39.909Z,96482.69
2024-01-06T17:05:10.493Z,96482.53
2024-01-06T17:07:42.066Z,96482.13
2024-01-06T17:10:11.891Z,96474.81
2024-01-06T17:12:40.250Z,96492.78
2024-01-06T17:15:10.204Z,96496.34
2024-01-06T17:17:40.139Z,96499.59
2024-01-06T17:20:11.984Z,96495.25
2024-01-06T17:22:40.611Z,96495.50
2024-01-06T17:25:15.530Z,96497.94
2024-01-06T17:27:43.678Z,96503.97
2024-01-06T17:30:12.643Z,96502.31
2024-01-06T17:32:40.789Z,96505.06
2024-01-06T17:35:11.869Z,96518.91
2024-01-06T17:37:40.259Z,96517.03
2024-01-06T17:40:09.755Z,96518.91
2024-01-06T17:42:38.585Z,96520.03
2024-01-06T17:45:07.503Z,96519.88
2024-01-06T17:47:37.101Z,96530.66
2024-01-06T17:50:06.525Z,96529.00
2024-01-06T17:52:36.100Z,96538.78
2024-01-06T17:55:04.585Z,96537.03
2024-01-06T17:57:35.683Z,96542.88
2024-01-06T18:00:08.630Z,96545.06
2024-01-06T18:02:38.872Z,96546.94
2024-01-06T18:05:08.811Z,96549.38
2024-01-06T18:07:39.276Z,96557.81
2024-01-06T18:10:10.332Z,96552.63
2024-01-06T18:12:40.270Z,96557.81
2024-01-06T18:15:08.487Z,96557.38
2024-01-06T18:17:37.633Z,96566.09
2024-01-06T18:20:07.382Z,96558.09
2024-01-06T18:22:35.743Z,96570.16
2024-01-06T18:25:06.334Z,96559.97
2024-01-06T18:27:34.548Z,96559.81
2024-01-06T18:30:02.656Z,96560.91
2024-01-06T18:32:30.877Z,96559.03
2024-01-06T18:34:59.275Z,96568.00
2024-01-06T18:37:27.506Z,96563.50
2024-01-06T18:39:55.630Z,96566.09
2024-01-06T18:42:26.091Z,96565.69
2024-01-06T18:44:54.456Z,96573.72
2024-01-06T18:47:23.693Z,96576.78
2024-01-06T18:49:51.959Z,96587.41
2024-01-06T18:52:20.214Z,96589.06
2024-01-06T18:54:48.562Z,96590.44
2024-01-06T18:57:19.227Z,96584.38
2024-01-06T18:59:51.824Z,96585.72
2024-01-06T19:02:24.775Z,96575.91
2024-01-06T19:04:52.882Z,96577.19
2024-01-06T19:07:21.120Z,96576.13
2024-01-06T19:09:49.677Z,96587.84
2024-01-06T19:12:18.127Z,96579.84
2024-01-06T19:14:47.086Z,96592.66
2024-01-06T19:17:16.790Z,96592.41
2024-01-06T19:19:45.599Z,96592.50
2024-01-06T19:22:13.804Z,96586.63
2024-01-06T19:24:44.085Z,96585.00
2024-01-06T19:27:12.795Z,96589.34
2024-01-06T19:29:44.539Z,96593.59
2024-01-06T19:32:13.086Z,96594.03
2024-01-06T19:34:43.053Z,96593.81
2024-01-06T19:37:11.535Z,96603.63
2024-01-06T19:39:39.645Z,96606.88
2024-01-06T19:42:08.174Z,96611.53
2024-01-06T19:44:36.407Z,96609.00
2024-01-06T19:47:04.917Z,96614.44
2024-01-06T19:49:33.460Z,96613.31
2024-01-06T19:52:03.748Z,96624.78
2024-01-06T19:54:33.480Z,96621.50
2024-01-06T19:57:02.127Z,96613.78
2024-01-06T19:59:30.180Z,96627.84
2024-01-06T20:01:58.331Z,96632.41
2024-01-06T20:04:27.255Z,96635.59
2024-01-06T20:06:55.804Z,96635.44
2024-01-06T20:09:25.332Z,96633.56
2024-01-06T20:11:53.980Z,96631.97
2024-01-06T20:14:22.124Z,96637.66
2024-01-06T20:16:50.451Z,96641.63
2024-01-06T20:19:19.147Z,96642.16
2024-01-06T20:21:47.411Z,96640.78
2024-01-06T20:24:15.612Z,96642.41
2024-01-06T20:26:45.225Z,96641.84
2024-01-06T20:29:13.646Z,96633.97
2024-01-06T20:31:41.906Z,96636.91
2024-01-06T20:34:11.149Z,96640.91
2024-01-06T20:36:39.461Z,96637.50
2024-01-06T20:39:07.541Z,96640.22
2024-01-06T20:41:35.739Z,96638.50
2024-01-06T20:44:07.589Z,96635.25
2024-01-06T20:46:37.508Z,96637.25
2024-01-06T20:49:05.561Z,96639.13
2024-01-06T20:51:35.576Z,96633.66
2024-01-06T20:54:03.822Z,96636.91
2024-01-06T20:56:32.045Z,96626.09
2024-01-06T20:59:00.156Z,96632.16
2024-01-06T21:01:29.658Z,96637.41
2024-01-06T21:03:57.692Z,96642.38
2024-01-06T21:06:27.630Z,96634.09
2024-01-06T21:08:55.997Z,96625.53
2024-01-06T21:11:24.194Z,96631.25
2024-01-06T21:13:52.234Z,96631.03
2024-01-06T21:16:20.331Z,96632.38
2024-01-06T21:18:50.339Z,96629.69
2024-01-06T21:21:20.225Z,96627.09
2024-01-06T21:23:49.726Z,96635.59
2024-01-06T21:26:18.339Z,96641.91
2024-01-06T21:28:48.548Z,96637.94
2024-01-06T21:31:17.225Z,96639.94
2024-01-06T21:33:46.915Z,96638.47
2024-01-06T21:36:17.878Z,96639.16
2024-01-06T21:38:46.174Z,96643.63
2024-01-06T21:41:15.041Z,96646.56
2024-01-06T21:43:43.527Z,96646.00
2024-01-06T21:46:11.588Z,96642.16
2024-01-06T21:48:40.686Z,96647.41
2024-01-06T21:51:08.840Z,96641.53
2024-01-06T21:53:39.207Z,96646.66
2024-01-06T21:56:07.786Z,96654.22
2024-01-06T21:58:35.919Z,96646.56
2024-01-06T22:01:04.296Z,96667.34
2024-01-06T22:03:32.519Z,96668.75
2024-01-06T22:06:00.959Z,96658.44
2024-01-06T22:08:29.587Z,96667.47
2024-01-06T22:10:58.979Z,96663.53
2024-01-06T22:13:26.963Z,96672.28
2024-01-06T22:15:55.169Z,96666.25
2024-01-06T22:18:24.092Z,96665.41
2024-01-06T22:20:53.165Z,96672.06
2024-01-06T22:23:21.158Z,96661.97
2024-01-06T22:25:49.225Z,96668.09
2024-01-06T22:28:18.841Z,96661.09
2024-01-06T22:30:47.392Z,96670.25
2024-01-06T22:33:16.537Z,96668.28
2024-01-06T22:35:45.063Z,96670.81
2024-01-06T22:38:13.143Z,96668.34
2024-01-06T22:40:41.307Z,96665.09
2024-01-06T22:43:09.489Z,96663.22
2024-01-06T22:45:39.920Z,96663.94
2024-01-06T22:48:08.467Z,96670.25
2024-01-06T22:50:37.066Z,96674.03
2024-01-06T22:53:07.006Z,96683.41
2024-01-06T22:55:35.168Z,96689.03
2024-01-06T22:58:03.282Z,96687.22
2024-01-06T23:00:37.159Z,96693.66
2024-01-06T23:03:07.961Z,96694.63
2024-01-06T23:05:36.141Z,96682.59
2024-01-06T23:08:04.626Z,96691.94
2024-01-06T23:10:33.167Z,96689.25
2024-01-06T23:13:01.303Z,96696.88
2024-01-06T23:15:29.625Z,96697.19
2024-01-06T23:17:58.506Z,96697.53
2024-01-06T23:20:28.097Z,96698.47
2024-01-06T23:22:56.113Z,96696.72
2024-01-06T23:25:24.823Z,96703.75
2024-01-06T23:27:52.929Z,96710.56
2024-01-06T23:30:21.929Z,96709.75
2024-01-06T23:32:50.211Z,96708.09
2024-01-06T23:35:18.532Z,96706.94
2024-01-06T23:37:51.680Z,96709.66
2024-01-06T23:40:21.018Z,96715.97
2024-01-06T23:42:49.203Z,96715.97
2024-01-06T23:45:17.577Z,96710.81
2024-01-06T23:47:45.725Z,96711.50
2024-01-06T23:50:13.914Z,96717.13
2024-01-06T23:52:42.754Z,96710.34
2024-01-06T23:55:13.069Z,96709.16
2024-01-06T23:57:41.444Z,96712.22
